Venez Explorer Les Airs Avec Nous!

Que ce soit pour un vol de découverte, pour apprendre l’art du pilotage ou pour voyager, venez nous rejoindre.

Information en heures locale pour LFDL
21 March 2019

Metar
LFBI 211230Z AUTO 04012KT 010V070 CAVOK 15/M01 Q1031 NOSIG

Lever du soleil aéronautique : 05:31

Lever du soleil : 06:01

Coucher du soleil :18:11

Coucher du soleil aéronautique :18:41

Contacts

Téléphone

Club:
07-66-57-42-61

Michel Richez (président):
06-52-73-09-01

Adresse

Aéroclub de Loudun
Bellevue
86200 Loudun

Vous vous trouvez sur un site temporaire.

Un site définitif sera disponible rapidement, en attendant vous pouvez nous contacter via les informations ci-dessus

Fermer le menu